sensor_id;sensor_type;location;lat;lon;timestamp;P1;durP1;ratioP1;P2;durP2;ratioP2
13311;SDS011;34033;48.672;9.376;2022-11-20T00:00:53;1.97;;;1.83;;
13311;SDS011;34033;48.672;9.376;2022-11-20T00:03:19;1.93;;;1.80;;
13311;SDS011;34033;48.672;9.376;2022-11-20T00:05:44;2.77;;;2.00;;
13311;SDS011;34033;48.672;9.376;2022-11-20T00:08:10;1.80;;;1.70;;
13311;SDS011;34033;48.672;9.376;2022-11-20T00:10:36;2.17;;;2.07;;
13311;SDS011;34033;48.672;9.376;2022-11-20T00:13:02;1.80;;;1.70;;
13311;SDS011;34033;48.672;9.376;2022-11-20T00:15:27;2.37;;;1.90;;
13311;SDS011;34033;48.672;9.376;2022-11-20T00:17:53;2.77;;;2.20;;
13311;SDS011;34033;48.672;9.376;2022-11-20T00:20:18;4.37;;;2.10;;
13311;SDS011;34033;48.672;9.376;2022-11-20T00:22:43;1.90;;;1.70;;
13311;SDS011;34033;48.672;9.376;2022-11-20T00:25:09;2.10;;;1.90;;
13311;SDS011;34033;48.672;9.376;2022-11-20T00:27:34;2.13;;;1.80;;
13311;SDS011;34033;48.672;9.376;2022-11-20T00:30:00;1.87;;;1.77;;
13311;SDS011;34033;48.672;9.376;2022-11-20T00:32:25;1.57;;;1.47;;
13311;SDS011;34033;48.672;9.376;2022-11-20T00:34:50;1.70;;;1.33;;
13311;SDS011;34033;48.672;9.376;2022-11-20T00:37:16;1.90;;;1.80;;
13311;SDS011;34033;48.672;9.376;2022-11-20T00:39:41;1.87;;;1.77;;
13311;SDS011;34033;48.672;9.376;2022-11-20T00:42:06;1.53;;;1.43;;
13311;SDS011;34033;48.672;9.376;2022-11-20T00:44:31;1.83;;;1.67;;
13311;SDS011;34033;48.672;9.376;2022-11-20T00:46:57;2.20;;;1.80;;
13311;SDS011;34033;48.672;9.376;2022-11-20T00:49:22;2.00;;;1.90;;
13311;SDS011;34033;48.672;9.376;2022-11-20T00:51:47;2.00;;;1.80;;
13311;SDS011;34033;48.672;9.376;2022-11-20T00:54:13;3.93;;;2.17;;
13311;SDS011;34033;48.672;9.376;2022-11-20T00:56:38;1.80;;;1.70;;
13311;SDS011;34033;48.672;9.376;2022-11-20T00:59:04;2.53;;;1.80;;
13311;SDS011;34033;48.672;9.376;2022-11-20T01:01:29;1.57;;;1.47;;
13311;SDS011;34033;48.672;9.376;2022-11-20T01:03:55;1.70;;;1.60;;
13311;SDS011;34033;48.672;9.376;2022-11-20T01:06:23;1.77;;;1.67;;
13311;SDS011;34033;48.672;9.376;2022-11-20T01:08:50;2.93;;;1.77;;
13311;SDS011;34033;48.672;9.376;2022-11-20T01:11:20;2.27;;;2.07;;
13311;SDS011;34033;48.672;9.376;2022-11-20T01:13:49;2.00;;;1.80;;
13311;SDS011;34033;48.672;9.376;2022-11-20T01:16:17;1.87;;;1.77;;
13311;SDS011;34033;48.672;9.376;2022-11-20T01:18:50;2.00;;;1.80;;
13311;SDS011;34033;48.672;9.376;2022-11-20T01:21:20;1.93;;;1.80;;
13311;SDS011;34033;48.672;9.376;2022-11-20T01:23:48;1.70;;;1.60;;
13311;SDS011;34033;48.672;9.376;2022-11-20T01:26:21;2.00;;;1.80;;
13311;SDS011;34033;48.672;9.376;2022-11-20T01:28:48;2.90;;;1.80;;
13311;SDS011;34033;48.672;9.376;2022-11-20T01:31:21;2.10;;;1.90;;
13311;SDS011;34033;48.672;9.376;2022-11-20T01:33:49;1.70;;;1.60;;
13311;SDS011;34033;48.672;9.376;2022-11-20T01:36:16;1.90;;;1.80;;
13311;SDS011;34033;48.672;9.376;2022-11-20T01:38:45;1.70;;;1.60;;
13311;SDS011;34033;48.672;9.376;2022-11-20T01:41:11;3.00;;;1.80;;
13311;SDS011;34033;48.672;9.376;2022-11-20T01:43:57;1.60;;;1.50;;
13311;SDS011;34033;48.672;9.376;2022-11-20T01:46:23;2.10;;;2.00;;
13311;SDS011;34033;48.672;9.376;2022-11-20T01:51:19;1.83;;;1.70;;
13311;SDS011;34033;48.672;9.376;2022-11-20T01:53:58;2.00;;;1.80;;
13311;SDS011;34033;48.672;9.376;2022-11-20T01:56:25;2.20;;;1.80;;
13311;SDS011;34033;48.672;9.376;2022-11-20T01:58:54;1.83;;;1.67;;
13311;SDS011;34033;48.672;9.376;2022-11-20T02:01:21;1.97;;;1.80;;
13311;SDS011;34033;48.672;9.376;2022-11-20T02:03:47;1.50;;;1.40;;
13311;SDS011;34033;48.672;9.376;2022-11-20T02:06:18;1.50;;;1.40;;
13311;SDS011;34033;48.672;9.376;2022-11-20T02:08:48;3.23;;;1.87;;
13311;SDS011;34033;48.672;9.376;2022-11-20T02:11:13;1.40;;;1.40;;
13311;SDS011;34033;48.672;9.376;2022-11-20T02:13:39;1.60;;;1.50;;
13311;SDS011;34033;48.672;9.376;2022-11-20T02:16:15;1.60;;;1.50;;
13311;SDS011;34033;48.672;9.376;2022-11-20T02:18:42;1.50;;;1.40;;
13311;SDS011;34033;48.672;9.376;2022-11-20T02:24:12;1.37;;;1.33;;
13311;SDS011;34033;48.672;9.376;2022-11-20T02:29:11;1.33;;;1.30;;
13311;SDS011;34033;48.672;9.376;2022-11-20T02:31:41;2.00;;;1.43;;
13311;SDS011;34033;48.672;9.376;2022-11-20T02:34:08;1.73;;;1.63;;
13311;SDS011;34033;48.672;9.376;2022-11-20T02:36:34;1.53;;;1.43;;
13311;SDS011;34033;48.672;9.376;2022-11-20T02:39:02;1.60;;;1.50;;
13311;SDS011;34033;48.672;9.376;2022-11-20T02:41:32;1.60;;;1.50;;
13311;SDS011;34033;48.672;9.376;2022-11-20T02:43:58;1.60;;;1.50;;
13311;SDS011;34033;48.672;9.376;2022-11-20T02:46:23;1.93;;;1.67;;
13311;SDS011;34033;48.672;9.376;2022-11-20T02:48:49;2.10;;;1.90;;
13311;SDS011;34033;48.672;9.376;2022-11-20T02:51:14;1.80;;;1.70;;
13311;SDS011;34033;48.672;9.376;2022-11-20T02:53:39;1.53;;;1.43;;
13311;SDS011;34033;48.672;9.376;2022-11-20T02:56:05;1.60;;;1.50;;
13311;SDS011;34033;48.672;9.376;2022-11-20T02:58:31;2.77;;;1.60;;
13311;SDS011;34033;48.672;9.376;2022-11-20T03:00:56;1.50;;;1.40;;
13311;SDS011;34033;48.672;9.376;2022-11-20T03:03:21;1.50;;;1.30;;
13311;SDS011;34033;48.672;9.376;2022-11-20T03:05:47;2.87;;;1.67;;
13311;SDS011;34033;48.672;9.376;2022-11-20T03:08:12;1.83;;;1.60;;
13311;SDS011;34033;48.672;9.376;2022-11-20T03:10:37;1.87;;;1.77;;
13311;SDS011;34033;48.672;9.376;2022-11-20T03:13:03;1.90;;;1.80;;
13311;SDS011;34033;48.672;9.376;2022-11-20T03:15:28;3.30;;;2.20;;
13311;SDS011;34033;48.672;9.376;2022-11-20T03:17:54;1.97;;;1.77;;
13311;SDS011;34033;48.672;9.376;2022-11-20T03:20:20;1.97;;;1.77;;
13311;SDS011;34033;48.672;9.376;2022-11-20T03:22:46;1.57;;;1.47;;
13311;SDS011;34033;48.672;9.376;2022-11-20T03:25:11;1.87;;;1.73;;
13311;SDS011;34033;48.672;9.376;2022-11-20T03:27:36;1.70;;;1.60;;
13311;SDS011;34033;48.672;9.376;2022-11-20T03:30:02;1.40;;;1.30;;
13311;SDS011;34033;48.672;9.376;2022-11-20T03:32:27;1.60;;;1.50;;
13311;SDS011;34033;48.672;9.376;2022-11-20T03:34:53;1.87;;;1.70;;
13311;SDS011;34033;48.672;9.376;2022-11-20T03:37:18;1.93;;;1.67;;
13311;SDS011;34033;48.672;9.376;2022-11-20T03:39:44;1.47;;;1.40;;
13311;SDS011;34033;48.672;9.376;2022-11-20T03:42:09;1.97;;;1.67;;
13311;SDS011;34033;48.672;9.376;2022-11-20T03:44:53;1.67;;;1.53;;
13311;SDS011;34033;48.672;9.376;2022-11-20T03:47:18;1.80;;;1.67;;
13311;SDS011;34033;48.672;9.376;2022-11-20T03:49:44;1.43;;;1.37;;
13311;SDS011;34033;48.672;9.376;2022-11-20T03:52:09;1.70;;;1.60;;
13311;SDS011;34033;48.672;9.376;2022-11-20T03:54:34;1.53;;;1.43;;
13311;SDS011;34033;48.672;9.376;2022-11-20T03:57:00;1.60;;;1.50;;
13311;SDS011;34033;48.672;9.376;2022-11-20T03:59:25;1.73;;;1.63;;
13311;SDS011;34033;48.672;9.376;2022-11-20T04:01:50;1.50;;;1.40;;
13311;SDS011;34033;48.672;9.376;2022-11-20T04:04:15;1.77;;;1.67;;
13311;SDS011;34033;48.672;9.376;2022-11-20T04:06:41;1.50;;;1.40;;
13311;SDS011;34033;48.672;9.376;2022-11-20T04:09:06;1.43;;;1.40;;
13311;SDS011;34033;48.672;9.376;2022-11-20T04:11:32;1.60;;;1.50;;
13311;SDS011;34033;48.672;9.376;2022-11-20T04:14:00;1.67;;;1.53;;
13311;SDS011;34033;48.672;9.376;2022-11-20T04:16:30;1.87;;;1.77;;
13311;SDS011;34033;48.672;9.376;2022-11-20T04:18:59;1.50;;;1.40;;
13311;SDS011;34033;48.672;9.376;2022-11-20T04:21:25;1.67;;;1.57;;
13311;SDS011;34033;48.672;9.376;2022-11-20T04:23:51;1.80;;;1.70;;
13311;SDS011;34033;48.672;9.376;2022-11-20T04:26:18;1.33;;;1.33;;
13311;SDS011;34033;48.672;9.376;2022-11-20T04:28:44;2.93;;;1.50;;
13311;SDS011;34033;48.672;9.376;2022-11-20T04:31:11;1.60;;;1.50;;
13311;SDS011;34033;48.672;9.376;2022-11-20T04:33:38;1.87;;;1.50;;
13311;SDS011;34033;48.672;9.376;2022-11-20T04:36:06;1.60;;;1.50;;
13311;SDS011;34033;48.672;9.376;2022-11-20T04:38:33;1.60;;;1.50;;
13311;SDS011;34033;48.672;9.376;2022-11-20T04:40:59;1.60;;;1.50;;
13311;SDS011;34033;48.672;9.376;2022-11-20T04:43:26;1.67;;;1.57;;
13311;SDS011;34033;48.672;9.376;2022-11-20T04:45:52;1.73;;;1.57;;
13311;SDS011;34033;48.672;9.376;2022-11-20T04:48:18;1.70;;;1.60;;
13311;SDS011;34033;48.672;9.376;2022-11-20T04:50:44;1.80;;;1.70;;
13311;SDS011;34033;48.672;9.376;2022-11-20T04:53:09;1.40;;;1.27;;
13311;SDS011;34033;48.672;9.376;2022-11-20T04:55:35;1.30;;;1.20;;
13311;SDS011;34033;48.672;9.376;2022-11-20T04:58:00;1.33;;;1.33;;
13311;SDS011;34033;48.672;9.376;2022-11-20T05:00:25;2.13;;;1.20;;
13311;SDS011;34033;48.672;9.376;2022-11-20T05:02:50;1.60;;;1.50;;
13311;SDS011;34033;48.672;9.376;2022-11-20T05:05:16;1.53;;;1.20;;
13311;SDS011;34033;48.672;9.376;2022-11-20T05:07:41;1.33;;;1.23;;
13311;SDS011;34033;48.672;9.376;2022-11-20T05:10:06;1.13;;;1.13;;
13311;SDS011;34033;48.672;9.376;2022-11-20T05:12:32;1.43;;;1.20;;
13311;SDS011;34033;48.672;9.376;2022-11-20T05:14:57;1.40;;;1.30;;
13311;SDS011;34033;48.672;9.376;2022-11-20T05:17:23;1.40;;;0.93;;
13311;SDS011;34033;48.672;9.376;2022-11-20T05:19:48;0.93;;;0.93;;
13311;SDS011;34033;48.672;9.376;2022-11-20T05:22:13;0.93;;;0.93;;
13311;SDS011;34033;48.672;9.376;2022-11-20T05:24:39;1.00;;;1.00;;
13311;SDS011;34033;48.672;9.376;2022-11-20T05:27:04;1.00;;;1.00;;
13311;SDS011;34033;48.672;9.376;2022-11-20T05:29:29;1.00;;;1.00;;
13311;SDS011;34033;48.672;9.376;2022-11-20T05:31:55;1.30;;;1.20;;
13311;SDS011;34033;48.672;9.376;2022-11-20T05:34:20;1.10;;;1.10;;
13311;SDS011;34033;48.672;9.376;2022-11-20T05:36:45;0.80;;;0.80;;
13311;SDS011;34033;48.672;9.376;2022-11-20T05:39:10;1.20;;;1.10;;
13311;SDS011;34033;48.672;9.376;2022-11-20T05:41:36;1.10;;;1.00;;
13311;SDS011;34033;48.672;9.376;2022-11-20T05:44:01;1.20;;;1.10;;
13311;SDS011;34033;48.672;9.376;2022-11-20T05:46:27;1.20;;;1.10;;
13311;SDS011;34033;48.672;9.376;2022-11-20T05:48:52;1.13;;;1.07;;
13311;SDS011;34033;48.672;9.376;2022-11-20T05:51:18;1.00;;;1.00;;
13311;SDS011;34033;48.672;9.376;2022-11-20T05:53:44;2.77;;;1.23;;
13311;SDS011;34033;48.672;9.376;2022-11-20T05:56:11;3.10;;;1.30;;
13311;SDS011;34033;48.672;9.376;2022-11-20T05:58:46;1.00;;;1.00;;
13311;SDS011;34033;48.672;9.376;2022-11-20T06:03:39;1.07;;;0.97;;
13311;SDS011;34033;48.672;9.376;2022-11-20T06:06:05;0.90;;;0.90;;
13311;SDS011;34033;48.672;9.376;2022-11-20T06:08:31;1.13;;;1.10;;
13311;SDS011;34033;48.672;9.376;2022-11-20T06:10:57;1.27;;;1.03;;
13311;SDS011;34033;48.672;9.376;2022-11-20T06:13:23;0.80;;;0.80;;
13311;SDS011;34033;48.672;9.376;2022-11-20T06:15:52;1.80;;;1.00;;
13311;SDS011;34033;48.672;9.376;2022-11-20T06:18:17;1.10;;;0.90;;
13311;SDS011;34033;48.672;9.376;2022-11-20T06:20:43;0.97;;;0.90;;
13311;SDS011;34033;48.672;9.376;2022-11-20T06:23:09;1.07;;;1.03;;
13311;SDS011;34033;48.672;9.376;2022-11-20T06:25:41;1.67;;;1.00;;
13311;SDS011;34033;48.672;9.376;2022-11-20T06:28:07;1.20;;;1.03;;
13311;SDS011;34033;48.672;9.376;2022-11-20T06:30:33;0.80;;;0.80;;
13311;SDS011;34033;48.672;9.376;2022-11-20T06:32:59;1.03;;;1.03;;
13311;SDS011;34033;48.672;9.376;2022-11-20T06:35:25;1.10;;;1.03;;
13311;SDS011;34033;48.672;9.376;2022-11-20T06:37:50;1.63;;;0.87;;
13311;SDS011;34033;48.672;9.376;2022-11-20T06:40:15;0.90;;;0.90;;
13311;SDS011;34033;48.672;9.376;2022-11-20T06:42:41;1.77;;;1.10;;
13311;SDS011;34033;48.672;9.376;2022-11-20T06:45:06;1.20;;;1.07;;
13311;SDS011;34033;48.672;9.376;2022-11-20T06:47:32;1.13;;;1.13;;
13311;SDS011;34033;48.672;9.376;2022-11-20T06:49:58;1.07;;;0.97;;
13311;SDS011;34033;48.672;9.376;2022-11-20T06:52:23;1.20;;;1.20;;
13311;SDS011;34033;48.672;9.376;2022-11-20T06:54:48;0.80;;;0.80;;
13311;SDS011;34033;48.672;9.376;2022-11-20T06:57:14;1.03;;;0.93;;
13311;SDS011;34033;48.672;9.376;2022-11-20T06:59:39;1.40;;;1.30;;
13311;SDS011;34033;48.672;9.376;2022-11-20T07:02:04;1.53;;;1.43;;
13311;SDS011;34033;48.672;9.376;2022-11-20T07:04:30;1.40;;;1.23;;
13311;SDS011;34033;48.672;9.376;2022-11-20T07:06:55;1.23;;;1.13;;
13311;SDS011;34033;48.672;9.376;2022-11-20T07:09:20;1.30;;;1.20;;
13311;SDS011;34033;48.672;9.376;2022-11-20T07:11:46;1.30;;;1.03;;
13311;SDS011;34033;48.672;9.376;2022-11-20T07:14:11;0.97;;;0.93;;
13311;SDS011;34033;48.672;9.376;2022-11-20T07:16:36;1.20;;;1.10;;
13311;SDS011;34033;48.672;9.376;2022-11-20T07:19:02;1.10;;;1.10;;
13311;SDS011;34033;48.672;9.376;2022-11-20T07:21:27;1.20;;;1.20;;
13311;SDS011;34033;48.672;9.376;2022-11-20T07:23:52;2.40;;;1.07;;
13311;SDS011;34033;48.672;9.376;2022-11-20T07:26:18;1.10;;;1.00;;
13311;SDS011;34033;48.672;9.376;2022-11-20T07:28:44;1.30;;;1.20;;
13311;SDS011;34033;48.672;9.376;2022-11-20T07:31:10;1.23;;;1.13;;
13311;SDS011;34033;48.672;9.376;2022-11-20T07:33:37;1.20;;;1.20;;
13311;SDS011;34033;48.672;9.376;2022-11-20T07:36:02;1.10;;;1.00;;
13311;SDS011;34033;48.672;9.376;2022-11-20T07:38:27;0.90;;;0.90;;
13311;SDS011;34033;48.672;9.376;2022-11-20T07:40:54;1.10;;;1.10;;
13311;SDS011;34033;48.672;9.376;2022-11-20T07:43:20;1.10;;;1.10;;
13311;SDS011;34033;48.672;9.376;2022-11-20T07:45:45;0.83;;;0.83;;
13311;SDS011;34033;48.672;9.376;2022-11-20T07:48:11;1.13;;;1.03;;
13311;SDS011;34033;48.672;9.376;2022-11-20T07:50:36;3.43;;;1.17;;
13311;SDS011;34033;48.672;9.376;2022-11-20T07:53:02;1.30;;;1.20;;
13311;SDS011;34033;48.672;9.376;2022-11-20T07:55:29;0.90;;;0.90;;
13311;SDS011;34033;48.672;9.376;2022-11-20T07:57:55;1.00;;;1.00;;
13311;SDS011;34033;48.672;9.376;2022-11-20T08:00:21;1.83;;;1.20;;
13311;SDS011;34033;48.672;9.376;2022-11-20T08:02:46;1.17;;;1.07;;
13311;SDS011;34033;48.672;9.376;2022-11-20T08:05:12;1.10;;;1.10;;
13311;SDS011;34033;48.672;9.376;2022-11-20T08:07:38;0.93;;;0.93;;
13311;SDS011;34033;48.672;9.376;2022-11-20T08:10:04;1.00;;;1.00;;
13311;SDS011;34033;48.672;9.376;2022-11-20T08:12:30;0.93;;;0.93;;
13311;SDS011;34033;48.672;9.376;2022-11-20T08:15:14;1.30;;;1.10;;
13311;SDS011;34033;48.672;9.376;2022-11-20T08:17:39;0.97;;;0.97;;
13311;SDS011;34033;48.672;9.376;2022-11-20T08:20:05;1.00;;;1.00;;
13311;SDS011;34033;48.672;9.376;2022-11-20T08:22:30;1.60;;;1.10;;
13311;SDS011;34033;48.672;9.376;2022-11-20T08:24:56;1.00;;;1.00;;
13311;SDS011;34033;48.672;9.376;2022-11-20T08:27:22;1.27;;;1.20;;
13311;SDS011;34033;48.672;9.376;2022-11-20T08:29:47;0.90;;;0.90;;
13311;SDS011;34033;48.672;9.376;2022-11-20T08:32:13;0.80;;;0.80;;
13311;SDS011;34033;48.672;9.376;2022-11-20T08:34:38;0.87;;;0.87;;
13311;SDS011;34033;48.672;9.376;2022-11-20T08:37:03;1.27;;;0.77;;
13311;SDS011;34033;48.672;9.376;2022-11-20T08:39:28;0.90;;;0.90;;
13311;SDS011;34033;48.672;9.376;2022-11-20T08:41:54;0.87;;;0.87;;
13311;SDS011;34033;48.672;9.376;2022-11-20T08:44:19;1.00;;;1.00;;
13311;SDS011;34033;48.672;9.376;2022-11-20T08:46:45;2.03;;;1.00;;
13311;SDS011;34033;48.672;9.376;2022-11-20T08:49:11;1.00;;;1.00;;
13311;SDS011;34033;48.672;9.376;2022-11-20T08:51:38;1.33;;;0.90;;
13311;SDS011;34033;48.672;9.376;2022-11-20T08:54:04;1.33;;;1.23;;
13311;SDS011;34033;48.672;9.376;2022-11-20T08:56:30;0.90;;;0.90;;
13311;SDS011;34033;48.672;9.376;2022-11-20T08:58:55;1.20;;;0.93;;
13311;SDS011;34033;48.672;9.376;2022-11-20T09:01:21;0.83;;;0.83;;
13311;SDS011;34033;48.672;9.376;2022-11-20T09:03:48;1.83;;;1.73;;
13311;SDS011;34033;48.672;9.376;2022-11-20T09:06:14;1.30;;;1.20;;
13311;SDS011;34033;48.672;9.376;2022-11-20T09:08:39;1.30;;;1.20;;
13311;SDS011;34033;48.672;9.376;2022-11-20T09:11:05;1.93;;;1.30;;
13311;SDS011;34033;48.672;9.376;2022-11-20T09:13:31;1.97;;;1.83;;
13311;SDS011;34033;48.672;9.376;2022-11-20T09:15:58;2.90;;;1.80;;
13311;SDS011;34033;48.672;9.376;2022-11-20T09:18:25;1.50;;;1.40;;
13311;SDS011;34033;48.672;9.376;2022-11-20T09:20:55;1.33;;;1.23;;
13311;SDS011;34033;48.672;9.376;2022-11-20T09:23:22;1.20;;;1.10;;
13311;SDS011;34033;48.672;9.376;2022-11-20T09:25:47;2.20;;;1.70;;
13311;SDS011;34033;48.672;9.376;2022-11-20T09:28:12;2.33;;;1.50;;
13311;SDS011;34033;48.672;9.376;2022-11-20T09:30:38;1.43;;;1.30;;
13311;SDS011;34033;48.672;9.376;2022-11-20T09:33:04;2.33;;;1.30;;
13311;SDS011;34033;48.672;9.376;2022-11-20T09:35:30;1.83;;;1.13;;
13311;SDS011;34033;48.672;9.376;2022-11-20T09:37:56;1.30;;;1.30;;
13311;SDS011;34033;48.672;9.376;2022-11-20T09:40:28;1.27;;;1.27;;
13311;SDS011;34033;48.672;9.376;2022-11-20T09:45:39;0.90;;;0.90;;
13311;SDS011;34033;48.672;9.376;2022-11-20T09:51:28;1.10;;;1.10;;
13311;SDS011;34033;48.672;9.376;2022-11-20T09:54:05;2.00;;;1.27;;
13311;SDS011;34033;48.672;9.376;2022-11-20T09:56:53;1.00;;;1.00;;
13311;SDS011;34033;48.672;9.376;2022-11-20T09:59:27;1.47;;;1.17;;
13311;SDS011;34033;48.672;9.376;2022-11-20T10:01:59;1.17;;;1.17;;
13311;SDS011;34033;48.672;9.376;2022-11-20T10:09:34;1.20;;;1.10;;
13311;SDS011;34033;48.672;9.376;2022-11-20T10:12:13;1.00;;;1.00;;
13311;SDS011;34033;48.672;9.376;2022-11-20T10:20:40;1.63;;;0.97;;
13311;SDS011;34033;48.672;9.376;2022-11-20T10:34:20;1.90;;;1.70;;
13311;SDS011;34033;48.672;9.376;2022-11-20T10:36:52;1.90;;;1.47;;
13311;SDS011;34033;48.672;9.376;2022-11-20T10:41:50;1.30;;;1.20;;
13311;SDS011;34033;48.672;9.376;2022-11-20T10:44:21;2.07;;;1.40;;
13311;SDS011;34033;48.672;9.376;2022-11-20T10:47:16;1.27;;;1.17;;
13311;SDS011;34033;48.672;9.376;2022-11-20T10:49:44;1.00;;;1.00;;
13311;SDS011;34033;48.672;9.376;2022-11-20T11:00:15;1.03;;;1.00;;
13311;SDS011;34033;48.672;9.376;2022-11-20T11:07:49;1.33;;;1.23;;
13311;SDS011;34033;48.672;9.376;2022-11-20T11:10:19;1.23;;;1.13;;
13311;SDS011;34033;48.672;9.376;2022-11-20T11:12:49;1.00;;;1.00;;
13311;SDS011;34033;48.672;9.376;2022-11-20T11:15:24;1.00;;;1.00;;
13311;SDS011;34033;48.672;9.376;2022-11-20T11:17:52;1.50;;;1.40;;
13311;SDS011;34033;48.672;9.376;2022-11-20T11:20:19;1.23;;;1.20;;
13311;SDS011;34033;48.672;9.376;2022-11-20T11:22:50;1.00;;;1.00;;
13311;SDS011;34033;48.672;9.376;2022-11-20T11:25:18;1.40;;;1.30;;
13311;SDS011;34033;48.672;9.376;2022-11-20T11:27:47;1.27;;;1.17;;
13311;SDS011;34033;48.672;9.376;2022-11-20T11:30:15;1.40;;;1.20;;
13311;SDS011;34033;48.672;9.376;2022-11-20T11:32:43;1.17;;;1.17;;
13311;SDS011;34033;48.672;9.376;2022-11-20T11:35:25;0.90;;;0.90;;
13311;SDS011;34033;48.672;9.376;2022-11-20T11:37:53;1.00;;;1.00;;
13311;SDS011;34033;48.672;9.376;2022-11-20T11:40:26;1.10;;;1.10;;
13311;SDS011;34033;48.672;9.376;2022-11-20T11:42:59;1.40;;;1.30;;
13311;SDS011;34033;48.672;9.376;2022-11-20T11:45:29;1.30;;;1.20;;
13311;SDS011;34033;48.672;9.376;2022-11-20T11:47:56;0.90;;;0.90;;
13311;SDS011;34033;48.672;9.376;2022-11-20T11:50:24;1.27;;;1.10;;
13311;SDS011;34033;48.672;9.376;2022-11-20T11:53:12;1.17;;;1.07;;
13311;SDS011;34033;48.672;9.376;2022-11-20T11:55:43;1.50;;;1.40;;
13311;SDS011;34033;48.672;9.376;2022-11-20T12:01:20;0.67;;;0.60;;
13311;SDS011;34033;48.672;9.376;2022-11-20T12:06:53;2.30;;;1.30;;
13311;SDS011;34033;48.672;9.376;2022-11-20T12:09:28;0.87;;;0.87;;
13311;SDS011;34033;48.672;9.376;2022-11-20T12:12:06;0.60;;;0.60;;
13311;SDS011;34033;48.672;9.376;2022-11-20T12:14:38;0.53;;;0.53;;
13311;SDS011;34033;48.672;9.376;2022-11-20T12:17:08;0.70;;;0.70;;
13311;SDS011;34033;48.672;9.376;2022-11-20T12:19:36;0.70;;;0.70;;
13311;SDS011;34033;48.672;9.376;2022-11-20T12:25:07;0.97;;;0.83;;
13311;SDS011;34033;48.672;9.376;2022-11-20T12:41:20;0.87;;;0.87;;
13311;SDS011;34033;48.672;9.376;2022-11-20T12:47:22;0.60;;;0.60;;
13311;SDS011;34033;48.672;9.376;2022-11-20T13:00:14;0.80;;;0.80;;
13311;SDS011;34033;48.672;9.376;2022-11-20T13:16:13;1.20;;;1.00;;
13311;SDS011;34033;48.672;9.376;2022-11-20T13:18:44;0.80;;;0.80;;
13311;SDS011;34033;48.672;9.376;2022-11-20T13:21:14;1.00;;;0.60;;
13311;SDS011;34033;48.672;9.376;2022-11-20T13:23:40;0.80;;;0.80;;
13311;SDS011;34033;48.672;9.376;2022-11-20T13:26:06;1.67;;;0.93;;
13311;SDS011;34033;48.672;9.376;2022-11-20T13:28:59;0.90;;;0.90;;
13311;SDS011;34033;48.672;9.376;2022-11-20T13:31:31;0.90;;;0.90;;
13311;SDS011;34033;48.672;9.376;2022-11-20T13:34:00;0.80;;;0.80;;
13311;SDS011;34033;48.672;9.376;2022-11-20T13:36:28;0.87;;;0.70;;
13311;SDS011;34033;48.672;9.376;2022-11-20T13:38:55;0.67;;;0.67;;
13311;SDS011;34033;48.672;9.376;2022-11-20T13:41:34;0.73;;;0.70;;
13311;SDS011;34033;48.672;9.376;2022-11-20T13:46:44;1.93;;;0.90;;
13311;SDS011;34033;48.672;9.376;2022-11-20T13:49:31;0.80;;;0.60;;
13311;SDS011;34033;48.672;9.376;2022-11-20T13:54:55;0.60;;;0.60;;
13311;SDS011;34033;48.672;9.376;2022-11-20T14:00:18;2.53;;;0.90;;
13311;SDS011;34033;48.672;9.376;2022-11-20T14:02:48;0.90;;;0.90;;
13311;SDS011;34033;48.672;9.376;2022-11-20T14:05:24;1.00;;;1.00;;
13311;SDS011;34033;48.672;9.376;2022-11-20T14:07:50;0.80;;;0.80;;
13311;SDS011;34033;48.672;9.376;2022-11-20T14:10:19;0.70;;;0.70;;
13311;SDS011;34033;48.672;9.376;2022-11-20T14:12:52;0.80;;;0.80;;
13311;SDS011;34033;48.672;9.376;2022-11-20T14:15:25;1.27;;;0.90;;
13311;SDS011;34033;48.672;9.376;2022-11-20T14:17:53;0.80;;;0.80;;
13311;SDS011;34033;48.672;9.376;2022-11-20T14:20:18;0.70;;;0.70;;
13311;SDS011;34033;48.672;9.376;2022-11-20T14:22:48;1.73;;;1.37;;
13311;SDS011;34033;48.672;9.376;2022-11-20T14:27:41;1.43;;;0.77;;
13311;SDS011;34033;48.672;9.376;2022-11-20T14:30:12;1.53;;;1.00;;
13311;SDS011;34033;48.672;9.376;2022-11-20T14:32:39;0.80;;;0.80;;
13311;SDS011;34033;48.672;9.376;2022-11-20T14:35:10;0.67;;;0.67;;
13311;SDS011;34033;48.672;9.376;2022-11-20T14:37:44;0.70;;;0.70;;
13311;SDS011;34033;48.672;9.376;2022-11-20T14:43:00;0.80;;;0.73;;
13311;SDS011;34033;48.672;9.376;2022-11-20T14:45:25;1.10;;;1.10;;
13311;SDS011;34033;48.672;9.376;2022-11-20T14:47:52;0.80;;;0.80;;
13311;SDS011;34033;48.672;9.376;2022-11-20T14:50:23;0.63;;;0.63;;
13311;SDS011;34033;48.672;9.376;2022-11-20T14:52:54;0.93;;;0.70;;
13311;SDS011;34033;48.672;9.376;2022-11-20T14:55:25;0.67;;;0.67;;
13311;SDS011;34033;48.672;9.376;2022-11-20T14:58:04;0.87;;;0.87;;
13311;SDS011;34033;48.672;9.376;2022-11-20T15:00:32;0.60;;;0.60;;
13311;SDS011;34033;48.672;9.376;2022-11-20T15:02:58;1.80;;;1.30;;
13311;SDS011;34033;48.672;9.376;2022-11-20T15:05:25;1.73;;;1.10;;
13311;SDS011;34033;48.672;9.376;2022-11-20T15:08:09;1.37;;;1.33;;
13311;SDS011;34033;48.672;9.376;2022-11-20T15:10:35;0.80;;;0.80;;
13311;SDS011;34033;48.672;9.376;2022-11-20T15:13:03;1.30;;;1.20;;
13311;SDS011;34033;48.672;9.376;2022-11-20T15:15:36;0.60;;;0.60;;
13311;SDS011;34033;48.672;9.376;2022-11-20T15:18:16;0.60;;;0.60;;
13311;SDS011;34033;48.672;9.376;2022-11-20T15:20:45;0.53;;;0.50;;
13311;SDS011;34033;48.672;9.376;2022-11-20T15:23:11;1.10;;;1.00;;
13311;SDS011;34033;48.672;9.376;2022-11-20T15:25:38;0.77;;;0.77;;
13311;SDS011;34033;48.672;9.376;2022-11-20T15:28:07;1.27;;;0.90;;
13311;SDS011;34033;48.672;9.376;2022-11-20T15:30:41;0.70;;;0.70;;
13311;SDS011;34033;48.672;9.376;2022-11-20T15:33:08;0.60;;;0.60;;
13311;SDS011;34033;48.672;9.376;2022-11-20T15:35:33;0.70;;;0.70;;
13311;SDS011;34033;48.672;9.376;2022-11-20T15:37:58;0.63;;;0.63;;
13311;SDS011;34033;48.672;9.376;2022-11-20T15:40:24;0.77;;;0.77;;
13311;SDS011;34033;48.672;9.376;2022-11-20T15:42:49;1.17;;;0.70;;
13311;SDS011;34033;48.672;9.376;2022-11-20T15:48:00;0.77;;;0.77;;
13311;SDS011;34033;48.672;9.376;2022-11-20T15:50:27;1.10;;;0.80;;
13311;SDS011;34033;48.672;9.376;2022-11-20T15:52:59;0.70;;;0.70;;
13311;SDS011;34033;48.672;9.376;2022-11-20T15:55:24;1.00;;;0.70;;
13311;SDS011;34033;48.672;9.376;2022-11-20T15:57:50;0.80;;;0.80;;
13311;SDS011;34033;48.672;9.376;2022-11-20T16:00:15;0.87;;;0.87;;
13311;SDS011;34033;48.672;9.376;2022-11-20T16:02:41;0.87;;;0.87;;
13311;SDS011;34033;48.672;9.376;2022-11-20T16:05:09;0.80;;;0.70;;
13311;SDS011;34033;48.672;9.376;2022-11-20T16:07:37;0.60;;;0.60;;
13311;SDS011;34033;48.672;9.376;2022-11-20T16:10:02;0.90;;;0.90;;
13311;SDS011;34033;48.672;9.376;2022-11-20T16:12:28;1.23;;;1.20;;
13311;SDS011;34033;48.672;9.376;2022-11-20T16:15:12;1.83;;;1.70;;
13311;SDS011;34033;48.672;9.376;2022-11-20T16:17:56;4.30;;;2.70;;
13311;SDS011;34033;48.672;9.376;2022-11-20T16:20:21;6.17;;;4.00;;
13311;SDS011;34033;48.672;9.376;2022-11-20T16:22:46;9.07;;;5.70;;
13311;SDS011;34033;48.672;9.376;2022-11-20T16:25:12;8.10;;;5.53;;
13311;SDS011;34033;48.672;9.376;2022-11-20T16:27:37;8.30;;;5.00;;
13311;SDS011;34033;48.672;9.376;2022-11-20T16:30:02;9.50;;;5.27;;
13311;SDS011;34033;48.672;9.376;2022-11-20T16:32:28;8.80;;;6.60;;
13311;SDS011;34033;48.672;9.376;2022-11-20T16:34:53;14.07;;;8.60;;
13311;SDS011;34033;48.672;9.376;2022-11-20T16:37:19;15.20;;;8.80;;
13311;SDS011;34033;48.672;9.376;2022-11-20T16:39:44;22.53;;;11.23;;
13311;SDS011;34033;48.672;9.376;2022-11-20T16:42:09;23.90;;;12.40;;
13311;SDS011;34033;48.672;9.376;2022-11-20T16:44:35;25.90;;;12.20;;
13311;SDS011;34033;48.672;9.376;2022-11-20T16:47:00;22.23;;;12.73;;
13311;SDS011;34033;48.672;9.376;2022-11-20T16:49:25;25.37;;;14.57;;
13311;SDS011;34033;48.672;9.376;2022-11-20T16:51:50;26.67;;;14.37;;